sensor_id;sensor_type;location;lat;lon;timestamp;P1;durP1;ratioP1;P2;durP2;ratioP2
61531;SDS011;47397;48.194;11.632;2022-11-15T00:00:26;4.85;;;4.03;;
61531;SDS011;47397;48.194;11.632;2022-11-15T00:01:26;4.40;;;3.63;;
61531;SDS011;47397;48.194;11.632;2022-11-15T00:02:28;4.75;;;4.05;;
61531;SDS011;47397;48.194;11.632;2022-11-15T00:03:28;5.10;;;3.95;;
61531;SDS011;47397;48.194;11.632;2022-11-15T00:04:29;4.93;;;3.92;;
61531;SDS011;47397;48.194;11.632;2022-11-15T00:05:29;4.30;;;3.90;;
61531;SDS011;47397;48.194;11.632;2022-11-15T00:06:34;4.97;;;3.67;;
61531;SDS011;47397;48.194;11.632;2022-11-15T00:07:34;5.70;;;4.15;;
61531;SDS011;47397;48.194;11.632;2022-11-15T00:08:35;5.28;;;3.78;;
61531;SDS011;47397;48.194;11.632;2022-11-15T00:09:35;4.57;;;3.55;;
61531;SDS011;47397;48.194;11.632;2022-11-15T00:10:36;5.40;;;4.18;;
61531;SDS011;47397;48.194;11.632;2022-11-15T00:11:36;4.10;;;3.70;;
61531;SDS011;47397;48.194;11.632;2022-11-15T00:12:37;5.18;;;3.78;;
61531;SDS011;47397;48.194;11.632;2022-11-15T00:13:37;5.80;;;3.70;;
61531;SDS011;47397;48.194;11.632;2022-11-15T00:14:38;4.80;;;3.30;;
61531;SDS011;47397;48.194;11.632;2022-11-15T00:15:38;5.93;;;4.25;;
61531;SDS011;47397;48.194;11.632;2022-11-15T00:16:40;4.47;;;3.65;;
61531;SDS011;47397;48.194;11.632;2022-11-15T00:17:41;4.45;;;3.85;;
61531;SDS011;47397;48.194;11.632;2022-11-15T00:18:42;4.25;;;3.38;;
61531;SDS011;47397;48.194;11.632;2022-11-15T00:19:42;4.60;;;3.55;;
61531;SDS011;47397;48.194;11.632;2022-11-15T00:20:43;3.83;;;3.42;;
61531;SDS011;47397;48.194;11.632;2022-11-15T00:21:43;4.80;;;3.45;;
61531;SDS011;47397;48.194;11.632;2022-11-15T00:22:44;5.30;;;3.67;;
61531;SDS011;47397;48.194;11.632;2022-11-15T00:23:44;4.30;;;3.88;;
61531;SDS011;47397;48.194;11.632;2022-11-15T00:24:45;5.32;;;4.07;;
61531;SDS011;47397;48.194;11.632;2022-11-15T00:25:45;4.30;;;3.67;;
61531;SDS011;47397;48.194;11.632;2022-11-15T00:26:45;3.90;;;3.50;;
61531;SDS011;47397;48.194;11.632;2022-11-15T00:27:46;4.38;;;3.97;;
61531;SDS011;47397;48.194;11.632;2022-11-15T00:28:46;5.78;;;3.58;;
61531;SDS011;47397;48.194;11.632;2022-11-15T00:29:47;5.70;;;3.78;;
61531;SDS011;47397;48.194;11.632;2022-11-15T00:30:47;4.00;;;3.50;;
61531;SDS011;47397;48.194;11.632;2022-11-15T00:31:48;4.43;;;3.55;;
61531;SDS011;47397;48.194;11.632;2022-11-15T00:32:49;4.90;;;3.60;;
61531;SDS011;47397;48.194;11.632;2022-11-15T00:33:50;4.55;;;3.28;;
61531;SDS011;47397;48.194;11.632;2022-11-15T00:34:50;5.22;;;3.78;;
61531;SDS011;47397;48.194;11.632;2022-11-15T00:35:51;4.93;;;3.63;;
61531;SDS011;47397;48.194;11.632;2022-11-15T00:36:51;4.85;;;3.60;;
61531;SDS011;47397;48.194;11.632;2022-11-15T00:37:52;4.93;;;3.58;;
61531;SDS011;47397;48.194;11.632;2022-11-15T00:38:52;4.10;;;3.50;;
61531;SDS011;47397;48.194;11.632;2022-11-15T00:39:53;4.65;;;4.15;;
61531;SDS011;47397;48.194;11.632;2022-11-15T00:40:53;4.28;;;3.47;;
61531;SDS011;47397;48.194;11.632;2022-11-15T00:41:53;4.15;;;3.40;;
61531;SDS011;47397;48.194;11.632;2022-11-15T00:42:54;4.28;;;3.45;;
61531;SDS011;47397;48.194;11.632;2022-11-15T00:43:54;3.95;;;3.38;;
61531;SDS011;47397;48.194;11.632;2022-11-15T00:44:55;4.95;;;3.90;;
61531;SDS011;47397;48.194;11.632;2022-11-15T00:45:55;4.88;;;3.47;;
61531;SDS011;47397;48.194;11.632;2022-11-15T00:46:56;4.55;;;3.60;;
61531;SDS011;47397;48.194;11.632;2022-11-15T00:47:57;3.85;;;3.22;;
61531;SDS011;47397;48.194;11.632;2022-11-15T00:48:58;5.03;;;3.30;;
61531;SDS011;47397;48.194;11.632;2022-11-15T00:49:58;4.55;;;3.47;;
61531;SDS011;47397;48.194;11.632;2022-11-15T00:50:59;3.75;;;3.20;;
61531;SDS011;47397;48.194;11.632;2022-11-15T00:51:59;4.18;;;3.38;;
61531;SDS011;47397;48.194;11.632;2022-11-15T00:52:59;4.25;;;3.22;;
61531;SDS011;47397;48.194;11.632;2022-11-15T00:54:00;4.75;;;3.30;;
61531;SDS011;47397;48.194;11.632;2022-11-15T00:55:00;3.63;;;3.28;;
61531;SDS011;47397;48.194;11.632;2022-11-15T00:56:01;5.40;;;3.65;;
61531;SDS011;47397;48.194;11.632;2022-11-15T00:57:01;4.28;;;3.53;;
61531;SDS011;47397;48.194;11.632;2022-11-15T00:58:02;3.90;;;3.13;;
61531;SDS011;47397;48.194;11.632;2022-11-15T00:59:02;5.05;;;3.72;;
61531;SDS011;47397;48.194;11.632;2022-11-15T01:00:03;4.20;;;3.10;;
61531;SDS011;47397;48.194;11.632;2022-11-15T01:01:05;4.50;;;3.35;;
61531;SDS011;47397;48.194;11.632;2022-11-15T01:02:06;4.57;;;3.75;;
61531;SDS011;47397;48.194;11.632;2022-11-15T01:03:08;4.05;;;3.45;;
61531;SDS011;47397;48.194;11.632;2022-11-15T01:04:08;4.15;;;3.50;;
61531;SDS011;47397;48.194;11.632;2022-11-15T01:05:09;4.63;;;3.22;;
61531;SDS011;47397;48.194;11.632;2022-11-15T01:06:09;3.88;;;3.40;;
61531;SDS011;47397;48.194;11.632;2022-11-15T01:07:10;3.50;;;3.20;;
61531;SDS011;47397;48.194;11.632;2022-11-15T01:08:11;6.03;;;3.60;;
61531;SDS011;47397;48.194;11.632;2022-11-15T01:09:12;4.50;;;3.38;;
61531;SDS011;47397;48.194;11.632;2022-11-15T01:10:13;3.35;;;3.00;;
61531;SDS011;47397;48.194;11.632;2022-11-15T01:11:13;4.05;;;2.83;;
61531;SDS011;47397;48.194;11.632;2022-11-15T01:12:13;4.28;;;3.15;;
61531;SDS011;47397;48.194;11.632;2022-11-15T01:13:14;3.92;;;2.92;;
61531;SDS011;47397;48.194;11.632;2022-11-15T01:14:14;4.28;;;3.10;;
61531;SDS011;47397;48.194;11.632;2022-11-15T01:15:15;4.72;;;3.15;;
61531;SDS011;47397;48.194;11.632;2022-11-15T01:16:16;4.05;;;2.95;;
61531;SDS011;47397;48.194;11.632;2022-11-15T01:17:17;3.70;;;3.30;;
61531;SDS011;47397;48.194;11.632;2022-11-15T01:18:19;4.65;;;3.85;;
61531;SDS011;47397;48.194;11.632;2022-11-15T01:19:19;3.80;;;3.13;;
61531;SDS011;47397;48.194;11.632;2022-11-15T01:20:20;4.47;;;3.28;;
61531;SDS011;47397;48.194;11.632;2022-11-15T01:21:20;4.95;;;3.15;;
61531;SDS011;47397;48.194;11.632;2022-11-15T01:22:21;4.15;;;3.38;;
61531;SDS011;47397;48.194;11.632;2022-11-15T01:23:21;5.38;;;3.63;;
61531;SDS011;47397;48.194;11.632;2022-11-15T01:24:22;3.75;;;3.05;;
61531;SDS011;47397;48.194;11.632;2022-11-15T01:25:22;3.15;;;2.83;;
61531;SDS011;47397;48.194;11.632;2022-11-15T01:26:23;4.00;;;3.40;;
61531;SDS011;47397;48.194;11.632;2022-11-15T01:27:24;3.70;;;3.30;;
61531;SDS011;47397;48.194;11.632;2022-11-15T01:28:24;3.63;;;3.05;;
61531;SDS011;47397;48.194;11.632;2022-11-15T01:29:25;3.70;;;2.90;;
61531;SDS011;47397;48.194;11.632;2022-11-15T01:30:25;3.83;;;3.20;;
61531;SDS011;47397;48.194;11.632;2022-11-15T01:31:25;3.90;;;2.90;;
61531;SDS011;47397;48.194;11.632;2022-11-15T01:32:26;3.75;;;2.92;;
61531;SDS011;47397;48.194;11.632;2022-11-15T01:33:28;3.60;;;2.80;;
61531;SDS011;47397;48.194;11.632;2022-11-15T01:34:29;3.35;;;2.75;;
61531;SDS011;47397;48.194;11.632;2022-11-15T01:35:29;3.42;;;2.83;;
61531;SDS011;47397;48.194;11.632;2022-11-15T01:36:29;4.05;;;3.35;;
61531;SDS011;47397;48.194;11.632;2022-11-15T01:37:30;3.65;;;2.92;;
61531;SDS011;47397;48.194;11.632;2022-11-15T01:38:30;4.00;;;3.08;;
61531;SDS011;47397;48.194;11.632;2022-11-15T01:39:31;3.88;;;3.00;;
61531;SDS011;47397;48.194;11.632;2022-11-15T01:40:31;4.75;;;3.10;;
61531;SDS011;47397;48.194;11.632;2022-11-15T01:41:32;3.88;;;3.10;;
61531;SDS011;47397;48.194;11.632;2022-11-15T01:42:33;4.65;;;3.40;;
61531;SDS011;47397;48.194;11.632;2022-11-15T01:43:34;3.35;;;3.00;;
61531;SDS011;47397;48.194;11.632;2022-11-15T01:44:39;4.25;;;3.03;;
61531;SDS011;47397;48.194;11.632;2022-11-15T01:45:42;3.75;;;3.08;;
61531;SDS011;47397;48.194;11.632;2022-11-15T01:46:43;3.70;;;3.28;;
61531;SDS011;47397;48.194;11.632;2022-11-15T01:47:48;4.43;;;3.05;;
61531;SDS011;47397;48.194;11.632;2022-11-15T01:48:53;4.50;;;3.20;;
61531;SDS011;47397;48.194;11.632;2022-11-15T01:49:56;3.50;;;2.80;;
61531;SDS011;47397;48.194;11.632;2022-11-15T01:51:01;4.22;;;3.00;;
61531;SDS011;47397;48.194;11.632;2022-11-15T01:52:05;3.33;;;2.78;;
61531;SDS011;47397;48.194;11.632;2022-11-15T01:53:08;4.35;;;3.10;;
61531;SDS011;47397;48.194;11.632;2022-11-15T01:54:11;4.15;;;2.85;;
61531;SDS011;47397;48.194;11.632;2022-11-15T01:55:17;4.65;;;3.00;;
61531;SDS011;47397;48.194;11.632;2022-11-15T01:56:21;3.70;;;2.90;;
61531;SDS011;47397;48.194;11.632;2022-11-15T01:57:23;3.90;;;2.95;;
61531;SDS011;47397;48.194;11.632;2022-11-15T01:58:23;3.45;;;2.80;;
61531;SDS011;47397;48.194;11.632;2022-11-15T01:59:24;3.80;;;3.28;;
61531;SDS011;47397;48.194;11.632;2022-11-15T02:00:25;3.72;;;3.00;;
61531;SDS011;47397;48.194;11.632;2022-11-15T02:01:25;3.42;;;2.80;;
61531;SDS011;47397;48.194;11.632;2022-11-15T02:02:27;4.35;;;3.00;;
61531;SDS011;47397;48.194;11.632;2022-11-15T02:03:31;4.05;;;2.80;;
61531;SDS011;47397;48.194;11.632;2022-11-15T02:04:39;3.08;;;2.72;;
61531;SDS011;47397;48.194;11.632;2022-11-15T02:05:41;3.85;;;3.05;;
61531;SDS011;47397;48.194;11.632;2022-11-15T02:06:43;5.32;;;3.00;;
61531;SDS011;47397;48.194;11.632;2022-11-15T02:07:46;3.10;;;2.40;;
61531;SDS011;47397;48.194;11.632;2022-11-15T02:08:48;4.32;;;2.50;;
61531;SDS011;47397;48.194;11.632;2022-11-15T02:09:49;3.63;;;2.90;;
61531;SDS011;47397;48.194;11.632;2022-11-15T02:10:51;3.60;;;2.70;;
61531;SDS011;47397;48.194;11.632;2022-11-15T02:11:51;4.22;;;3.00;;
61531;SDS011;47397;48.194;11.632;2022-11-15T02:12:54;3.78;;;2.80;;
61531;SDS011;47397;48.194;11.632;2022-11-15T02:13:56;3.17;;;2.78;;
61531;SDS011;47397;48.194;11.632;2022-11-15T02:14:58;3.50;;;2.88;;
61531;SDS011;47397;48.194;11.632;2022-11-15T02:16:03;3.38;;;2.78;;
61531;SDS011;47397;48.194;11.632;2022-11-15T02:17:20;3.33;;;2.55;;
61531;SDS011;47397;48.194;11.632;2022-11-15T02:18:34;4.53;;;2.97;;
61531;SDS011;47397;48.194;11.632;2022-11-15T02:19:49;3.28;;;2.70;;
61531;SDS011;47397;48.194;11.632;2022-11-15T02:21:10;4.25;;;3.10;;
61531;SDS011;47397;48.194;11.632;2022-11-15T02:22:21;3.50;;;2.88;;
61531;SDS011;47397;48.194;11.632;2022-11-15T02:23:41;4.53;;;2.80;;
61531;SDS011;47397;48.194;11.632;2022-11-15T02:25:05;3.97;;;2.53;;
61531;SDS011;47397;48.194;11.632;2022-11-15T02:27:59;3.22;;;2.58;;
61531;SDS011;47397;48.194;11.632;2022-11-15T02:29:17;3.33;;;2.40;;
61531;SDS011;47397;48.194;11.632;2022-11-15T02:30:31;3.05;;;2.55;;
61531;SDS011;47397;48.194;11.632;2022-11-15T02:31:39;3.50;;;2.55;;
61531;SDS011;47397;48.194;11.632;2022-11-15T02:32:47;3.17;;;2.78;;
61531;SDS011;47397;48.194;11.632;2022-11-15T02:33:52;3.92;;;2.90;;
61531;SDS011;47397;48.194;11.632;2022-11-15T02:35:01;2.90;;;2.53;;
61531;SDS011;47397;48.194;11.632;2022-11-15T02:36:09;3.22;;;2.55;;
61531;SDS011;47397;48.194;11.632;2022-11-15T02:37:15;4.05;;;3.10;;
61531;SDS011;47397;48.194;11.632;2022-11-15T02:38:21;4.65;;;3.08;;
61531;SDS011;47397;48.194;11.632;2022-11-15T02:39:27;3.30;;;2.80;;
61531;SDS011;47397;48.194;11.632;2022-11-15T02:40:34;3.38;;;2.83;;
61531;SDS011;47397;48.194;11.632;2022-11-15T02:41:39;4.72;;;3.00;;
61531;SDS011;47397;48.194;11.632;2022-11-15T02:42:45;3.53;;;2.58;;
61531;SDS011;47397;48.194;11.632;2022-11-15T02:43:51;3.95;;;2.85;;
61531;SDS011;47397;48.194;11.632;2022-11-15T02:44:55;4.15;;;2.92;;
61531;SDS011;47397;48.194;11.632;2022-11-15T02:46:01;4.38;;;3.28;;
61531;SDS011;47397;48.194;11.632;2022-11-15T02:47:06;3.78;;;2.75;;
61531;SDS011;47397;48.194;11.632;2022-11-15T02:48:11;3.95;;;2.70;;
61531;SDS011;47397;48.194;11.632;2022-11-15T02:49:12;2.88;;;2.50;;
61531;SDS011;47397;48.194;11.632;2022-11-15T02:50:16;3.97;;;2.92;;
61531;SDS011;47397;48.194;11.632;2022-11-15T02:51:18;3.30;;;2.83;;
61531;SDS011;47397;48.194;11.632;2022-11-15T02:52:19;3.47;;;2.75;;
61531;SDS011;47397;48.194;11.632;2022-11-15T02:53:23;4.10;;;2.60;;
61531;SDS011;47397;48.194;11.632;2022-11-15T02:54:25;3.20;;;2.75;;
61531;SDS011;47397;48.194;11.632;2022-11-15T02:55:29;3.55;;;2.90;;
61531;SDS011;47397;48.194;11.632;2022-11-15T02:56:30;3.42;;;2.67;;
61531;SDS011;47397;48.194;11.632;2022-11-15T02:57:35;3.67;;;2.85;;
61531;SDS011;47397;48.194;11.632;2022-11-15T02:58:48;3.25;;;2.80;;
61531;SDS011;47397;48.194;11.632;2022-11-15T03:00:10;4.18;;;2.50;;
61531;SDS011;47397;48.194;11.632;2022-11-15T03:01:15;3.35;;;2.63;;
61531;SDS011;47397;48.194;11.632;2022-11-15T03:02:28;3.33;;;2.63;;
61531;SDS011;47397;48.194;11.632;2022-11-15T03:03:46;3.33;;;2.63;;
61531;SDS011;47397;48.194;11.632;2022-11-15T03:04:56;3.22;;;2.30;;
61531;SDS011;47397;48.194;11.632;2022-11-15T03:06:01;3.45;;;2.28;;
61531;SDS011;47397;48.194;11.632;2022-11-15T03:07:11;3.58;;;2.50;;
61531;SDS011;47397;48.194;11.632;2022-11-15T03:08:17;4.55;;;2.67;;
61531;SDS011;47397;48.194;11.632;2022-11-15T03:09:25;3.60;;;2.45;;
61531;SDS011;47397;48.194;11.632;2022-11-15T03:10:36;3.17;;;2.47;;
61531;SDS011;47397;48.194;11.632;2022-11-15T03:11:47;2.97;;;2.50;;
61531;SDS011;47397;48.194;11.632;2022-11-15T03:12:55;3.17;;;2.22;;
61531;SDS011;47397;48.194;11.632;2022-11-15T03:13:58;3.45;;;2.60;;
61531;SDS011;47397;48.194;11.632;2022-11-15T03:15:04;3.50;;;2.67;;
61531;SDS011;47397;48.194;11.632;2022-11-15T03:16:09;3.80;;;2.67;;
61531;SDS011;47397;48.194;11.632;2022-11-15T03:17:16;3.95;;;2.75;;
61531;SDS011;47397;48.194;11.632;2022-11-15T03:18:23;2.97;;;2.45;;
61531;SDS011;47397;48.194;11.632;2022-11-15T03:19:31;3.40;;;2.50;;
61531;SDS011;47397;48.194;11.632;2022-11-15T03:20:35;3.00;;;2.35;;
61531;SDS011;47397;48.194;11.632;2022-11-15T03:21:36;2.90;;;2.40;;
61531;SDS011;47397;48.194;11.632;2022-11-15T03:22:40;3.28;;;2.47;;
61531;SDS011;47397;48.194;11.632;2022-11-15T03:23:43;3.03;;;2.70;;
61531;SDS011;47397;48.194;11.632;2022-11-15T03:24:45;3.35;;;2.33;;
61531;SDS011;47397;48.194;11.632;2022-11-15T03:25:50;3.55;;;2.60;;
61531;SDS011;47397;48.194;11.632;2022-11-15T03:26:52;3.88;;;2.42;;
61531;SDS011;47397;48.194;11.632;2022-11-15T03:27:55;3.33;;;2.70;;
61531;SDS011;47397;48.194;11.632;2022-11-15T03:28:59;4.10;;;2.78;;
61531;SDS011;47397;48.194;11.632;2022-11-15T03:30:02;3.67;;;2.85;;
61531;SDS011;47397;48.194;11.632;2022-11-15T03:31:06;3.80;;;2.90;;
61531;SDS011;47397;48.194;11.632;2022-11-15T03:32:09;3.15;;;2.65;;
61531;SDS011;47397;48.194;11.632;2022-11-15T03:33:13;4.13;;;2.67;;
61531;SDS011;47397;48.194;11.632;2022-11-15T03:34:16;3.08;;;2.53;;
61531;SDS011;47397;48.194;11.632;2022-11-15T03:35:22;3.20;;;2.67;;
61531;SDS011;47397;48.194;11.632;2022-11-15T03:36:23;3.65;;;2.47;;
61531;SDS011;47397;48.194;11.632;2022-11-15T03:37:27;3.45;;;2.45;;
61531;SDS011;47397;48.194;11.632;2022-11-15T03:38:32;4.55;;;2.85;;
61531;SDS011;47397;48.194;11.632;2022-11-15T03:39:35;3.22;;;2.40;;
61531;SDS011;47397;48.194;11.632;2022-11-15T03:40:36;2.90;;;2.40;;
61531;SDS011;47397;48.194;11.632;2022-11-15T03:41:39;3.88;;;2.42;;
61531;SDS011;47397;48.194;11.632;2022-11-15T03:42:47;3.83;;;2.83;;
61531;SDS011;47397;48.194;11.632;2022-11-15T03:43:55;3.65;;;2.30;;
61531;SDS011;47397;48.194;11.632;2022-11-15T03:45:01;2.97;;;2.65;;
61531;SDS011;47397;48.194;11.632;2022-11-15T03:46:07;3.30;;;2.42;;
61531;SDS011;47397;48.194;11.632;2022-11-15T03:47:16;3.17;;;2.42;;
61531;SDS011;47397;48.194;11.632;2022-11-15T03:48:21;4.22;;;3.00;;
61531;SDS011;47397;48.194;11.632;2022-11-15T03:49:24;3.53;;;2.85;;
61531;SDS011;47397;48.194;11.632;2022-11-15T03:50:27;2.92;;;2.38;;
61531;SDS011;47397;48.194;11.632;2022-11-15T03:51:28;3.50;;;2.47;;
61531;SDS011;47397;48.194;11.632;2022-11-15T03:52:30;2.97;;;2.17;;
61531;SDS011;47397;48.194;11.632;2022-11-15T03:53:33;3.30;;;2.63;;
61531;SDS011;47397;48.194;11.632;2022-11-15T03:54:33;3.17;;;2.58;;
61531;SDS011;47397;48.194;11.632;2022-11-15T03:55:33;3.30;;;2.42;;
61531;SDS011;47397;48.194;11.632;2022-11-15T03:56:34;3.30;;;2.22;;
61531;SDS011;47397;48.194;11.632;2022-11-15T03:57:34;2.80;;;2.40;;
61531;SDS011;47397;48.194;11.632;2022-11-15T03:58:35;3.45;;;2.45;;
61531;SDS011;47397;48.194;11.632;2022-11-15T03:59:35;3.85;;;2.67;;
61531;SDS011;47397;48.194;11.632;2022-11-15T04:00:35;3.80;;;2.60;;
61531;SDS011;47397;48.194;11.632;2022-11-15T04:01:36;3.15;;;2.33;;
61531;SDS011;47397;48.194;11.632;2022-11-15T04:02:38;2.83;;;2.30;;
61531;SDS011;47397;48.194;11.632;2022-11-15T04:03:38;2.70;;;2.10;;
61531;SDS011;47397;48.194;11.632;2022-11-15T04:04:38;2.80;;;2.38;;
61531;SDS011;47397;48.194;11.632;2022-11-15T04:05:39;3.15;;;2.25;;
61531;SDS011;47397;48.194;11.632;2022-11-15T04:06:39;3.15;;;2.65;;
61531;SDS011;47397;48.194;11.632;2022-11-15T04:07:40;3.00;;;2.40;;
61531;SDS011;47397;48.194;11.632;2022-11-15T04:08:40;2.97;;;2.40;;
61531;SDS011;47397;48.194;11.632;2022-11-15T04:09:41;3.17;;;2.13;;
61531;SDS011;47397;48.194;11.632;2022-11-15T04:10:41;2.80;;;2.20;;
61531;SDS011;47397;48.194;11.632;2022-11-15T04:11:41;4.60;;;2.17;;
61531;SDS011;47397;48.194;11.632;2022-11-15T04:12:43;3.08;;;2.30;;
61531;SDS011;47397;48.194;11.632;2022-11-15T04:13:45;3.85;;;2.72;;
61531;SDS011;47397;48.194;11.632;2022-11-15T04:14:45;2.65;;;2.25;;
61531;SDS011;47397;48.194;11.632;2022-11-15T04:15:46;3.10;;;2.42;;
61531;SDS011;47397;48.194;11.632;2022-11-15T04:16:46;3.08;;;2.30;;
61531;SDS011;47397;48.194;11.632;2022-11-15T04:17:49;3.03;;;2.22;;
61531;SDS011;47397;48.194;11.632;2022-11-15T04:18:50;2.80;;;2.00;;
61531;SDS011;47397;48.194;11.632;2022-11-15T04:19:51;3.10;;;2.35;;
61531;SDS011;47397;48.194;11.632;2022-11-15T04:20:51;4.03;;;2.20;;
61531;SDS011;47397;48.194;11.632;2022-11-15T04:21:52;2.92;;;2.33;;
61531;SDS011;47397;48.194;11.632;2022-11-15T04:22:52;2.20;;;1.95;;
61531;SDS011;47397;48.194;11.632;2022-11-15T04:23:54;2.50;;;1.95;;
61531;SDS011;47397;48.194;11.632;2022-11-15T04:24:54;2.75;;;2.10;;
61531;SDS011;47397;48.194;11.632;2022-11-15T04:25:55;2.70;;;2.00;;
61531;SDS011;47397;48.194;11.632;2022-11-15T04:26:57;2.65;;;2.22;;
61531;SDS011;47397;48.194;11.632;2022-11-15T04:27:58;3.58;;;2.47;;
61531;SDS011;47397;48.194;11.632;2022-11-15T04:28:58;5.57;;;2.40;;
61531;SDS011;47397;48.194;11.632;2022-11-15T04:29:59;2.97;;;2.25;;
61531;SDS011;47397;48.194;11.632;2022-11-15T04:30:59;2.88;;;2.20;;
61531;SDS011;47397;48.194;11.632;2022-11-15T04:32:00;3.40;;;2.22;;
61531;SDS011;47397;48.194;11.632;2022-11-15T04:33:02;3.45;;;2.20;;
61531;SDS011;47397;48.194;11.632;2022-11-15T04:34:02;2.47;;;1.98;;
61531;SDS011;47397;48.194;11.632;2022-11-15T04:35:03;3.78;;;2.33;;
61531;SDS011;47397;48.194;11.632;2022-11-15T04:36:04;2.80;;;2.10;;
61531;SDS011;47397;48.194;11.632;2022-11-15T04:37:05;2.55;;;1.95;;
61531;SDS011;47397;48.194;11.632;2022-11-15T04:38:06;2.95;;;2.20;;
61531;SDS011;47397;48.194;11.632;2022-11-15T04:39:08;2.90;;;1.88;;
61531;SDS011;47397;48.194;11.632;2022-11-15T04:40:08;2.90;;;2.00;;
61531;SDS011;47397;48.194;11.632;2022-11-15T04:41:09;3.45;;;2.20;;
61531;SDS011;47397;48.194;11.632;2022-11-15T04:42:09;2.55;;;2.00;;
61531;SDS011;47397;48.194;11.632;2022-11-15T04:43:10;2.88;;;1.83;;
61531;SDS011;47397;48.194;11.632;2022-11-15T04:44:10;3.00;;;1.98;;
61531;SDS011;47397;48.194;11.632;2022-11-15T04:45:11;2.92;;;1.80;;
61531;SDS011;47397;48.194;11.632;2022-11-15T04:46:11;2.78;;;2.20;;
61531;SDS011;47397;48.194;11.632;2022-11-15T04:47:12;2.85;;;2.00;;
61531;SDS011;47397;48.194;11.632;2022-11-15T04:48:13;2.63;;;1.98;;
61531;SDS011;47397;48.194;11.632;2022-11-15T04:49:14;4.03;;;2.17;;
61531;SDS011;47397;48.194;11.632;2022-11-15T04:50:15;2.80;;;2.00;;
61531;SDS011;47397;48.194;11.632;2022-11-15T04:51:16;2.65;;;2.00;;
61531;SDS011;47397;48.194;11.632;2022-11-15T04:52:16;2.70;;;2.22;;
61531;SDS011;47397;48.194;11.632;2022-11-15T04:53:17;2.58;;;1.90;;
61531;SDS011;47397;48.194;11.632;2022-11-15T04:54:17;2.22;;;1.70;;
61531;SDS011;47397;48.194;11.632;2022-11-15T04:55:18;2.70;;;2.08;;
61531;SDS011;47397;48.194;11.632;2022-11-15T04:56:18;2.80;;;2.00;;
61531;SDS011;47397;48.194;11.632;2022-11-15T04:57:19;3.03;;;1.90;;
61531;SDS011;47397;48.194;11.632;2022-11-15T04:58:19;2.65;;;2.00;;
61531;SDS011;47397;48.194;11.632;2022-11-15T04:59:20;2.67;;;2.10;;
61531;SDS011;47397;48.194;11.632;2022-11-15T05:00:20;2.63;;;1.83;;
61531;SDS011;47397;48.194;11.632;2022-11-15T05:01:20;2.95;;;1.92;;
61531;SDS011;47397;48.194;11.632;2022-11-15T05:02:21;3.10;;;2.20;;
61531;SDS011;47397;48.194;11.632;2022-11-15T05:03:23;2.55;;;1.95;;
61531;SDS011;47397;48.194;11.632;2022-11-15T05:04:23;3.17;;;2.00;;
61531;SDS011;47397;48.194;11.632;2022-11-15T05:05:23;2.60;;;1.80;;
61531;SDS011;47397;48.194;11.632;2022-11-15T05:06:24;3.40;;;2.20;;
61531;SDS011;47397;48.194;11.632;2022-11-15T05:07:24;3.15;;;2.15;;
61531;SDS011;47397;48.194;11.632;2022-11-15T05:08:25;2.47;;;1.98;;
61531;SDS011;47397;48.194;11.632;2022-11-15T05:09:25;2.58;;;2.00;;
61531;SDS011;47397;48.194;11.632;2022-11-15T05:10:26;3.25;;;2.08;;
61531;SDS011;47397;48.194;11.632;2022-11-15T05:11:26;2.42;;;1.77;;
61531;SDS011;47397;48.194;11.632;2022-11-15T05:12:27;2.60;;;1.90;;
61531;SDS011;47397;48.194;11.632;2022-11-15T05:13:27;2.67;;;1.90;;
61531;SDS011;47397;48.194;11.632;2022-11-15T05:14:27;2.65;;;1.83;;
61531;SDS011;47397;48.194;11.632;2022-11-15T05:15:28;2.58;;;1.75;;
61531;SDS011;47397;48.194;11.632;2022-11-15T05:16:28;2.35;;;1.77;;
61531;SDS011;47397;48.194;11.632;2022-11-15T05:17:29;3.08;;;2.13;;
61531;SDS011;47397;48.194;11.632;2022-11-15T05:18:30;2.97;;;2.15;;
61531;SDS011;47397;48.194;11.632;2022-11-15T05:19:31;3.30;;;1.92;;
61531;SDS011;47397;48.194;11.632;2022-11-15T05:20:31;3.13;;;2.00;;
61531;SDS011;47397;48.194;11.632;2022-11-15T05:21:32;2.53;;;1.73;;
61531;SDS011;47397;48.194;11.632;2022-11-15T05:22:33;2.67;;;1.90;;
61531;SDS011;47397;48.194;11.632;2022-11-15T05:23:34;2.85;;;1.95;;
61531;SDS011;47397;48.194;11.632;2022-11-15T05:24:34;3.20;;;1.88;;
61531;SDS011;47397;48.194;11.632;2022-11-15T05:25:35;3.75;;;2.10;;
61531;SDS011;47397;48.194;11.632;2022-11-15T05:26:36;2.60;;;1.85;;
61531;SDS011;47397;48.194;11.632;2022-11-15T05:27:36;2.38;;;1.90;;
61531;SDS011;47397;48.194;11.632;2022-11-15T05:28:37;2.63;;;1.92;;
61531;SDS011;47397;48.194;11.632;2022-11-15T05:29:37;2.72;;;1.98;;
61531;SDS011;47397;48.194;11.632;2022-11-15T05:30:38;2.85;;;1.95;;
61531;SDS011;47397;48.194;11.632;2022-11-15T05:31:39;2.65;;;1.80;;
61531;SDS011;47397;48.194;11.632;2022-11-15T05:32:40;2.50;;;1.90;;
61531;SDS011;47397;48.194;11.632;2022-11-15T05:33:42;2.83;;;1.92;;
61531;SDS011;47397;48.194;11.632;2022-11-15T05:34:44;2.28;;;1.88;;
61531;SDS011;47397;48.194;11.632;2022-11-15T05:35:46;2.45;;;1.70;;
61531;SDS011;47397;48.194;11.632;2022-11-15T05:36:50;2.33;;;1.77;;
61531;SDS011;47397;48.194;11.632;2022-11-15T05:37:51;2.80;;;1.88;;
61531;SDS011;47397;48.194;11.632;2022-11-15T05:38:51;2.40;;;1.88;;
61531;SDS011;47397;48.194;11.632;2022-11-15T05:39:52;2.97;;;1.90;;
61531;SDS011;47397;48.194;11.632;2022-11-15T05:40:52;3.17;;;1.90;;
61531;SDS011;47397;48.194;11.632;2022-11-15T05:41:55;2.42;;;1.95;;
61531;SDS011;47397;48.194;11.632;2022-11-15T05:42:59;2.35;;;1.70;;
61531;SDS011;47397;48.194;11.632;2022-11-15T05:44:03;2.83;;;1.73;;
61531;SDS011;47397;48.194;11.632;2022-11-15T05:45:07;2.63;;;1.90;;
61531;SDS011;47397;48.194;11.632;2022-11-15T05:46:09;2.78;;;2.00;;
61531;SDS011;47397;48.194;11.632;2022-11-15T05:47:10;2.85;;;2.10;;
61531;SDS011;47397;48.194;11.632;2022-11-15T05:48:15;2.47;;;1.80;;
61531;SDS011;47397;48.194;11.632;2022-11-15T05:49:17;2.65;;;1.80;;
61531;SDS011;47397;48.194;11.632;2022-11-15T05:50:21;3.00;;;2.00;;
61531;SDS011;47397;48.194;11.632;2022-11-15T05:51:21;3.38;;;2.15;;
61531;SDS011;47397;48.194;11.632;2022-11-15T05:52:24;2.67;;;1.67;;
61531;SDS011;47397;48.194;11.632;2022-11-15T05:53:27;2.42;;;1.75;;
61531;SDS011;47397;48.194;11.632;2022-11-15T05:54:28;2.53;;;2.03;;
61531;SDS011;47397;48.194;11.632;2022-11-15T05:55:28;3.25;;;2.20;;
61531;SDS011;47397;48.194;11.632;2022-11-15T05:56:29;2.92;;;1.80;;
61531;SDS011;47397;48.194;11.632;2022-11-15T05:57:30;2.83;;;1.95;;
61531;SDS011;47397;48.194;11.632;2022-11-15T05:58:30;2.65;;;1.67;;
61531;SDS011;47397;48.194;11.632;2022-11-15T05:59:31;2.50;;;1.80;;
61531;SDS011;47397;48.194;11.632;2022-11-15T06:00:32;2.88;;;2.30;;
61531;SDS011;47397;48.194;11.632;2022-11-15T06:01:33;2.83;;;1.95;;
61531;SDS011;47397;48.194;11.632;2022-11-15T06:02:34;2.88;;;1.90;;
61531;SDS011;47397;48.194;11.632;2022-11-15T06:03:34;2.92;;;1.70;;
61531;SDS011;47397;48.194;11.632;2022-11-15T06:04:36;2.47;;;2.03;;
61531;SDS011;47397;48.194;11.632;2022-11-15T06:05:37;2.75;;;1.95;;
61531;SDS011;47397;48.194;11.632;2022-11-15T06:06:37;3.35;;;1.67;;
61531;SDS011;47397;48.194;11.632;2022-11-15T06:07:37;2.53;;;1.98;;
61531;SDS011;47397;48.194;11.632;2022-11-15T06:08:38;2.20;;;1.60;;
61531;SDS011;47397;48.194;11.632;2022-11-15T06:09:38;2.92;;;1.90;;
61531;SDS011;47397;48.194;11.632;2022-11-15T06:10:39;2.60;;;1.80;;
61531;SDS011;47397;48.194;11.632;2022-11-15T06:11:39;2.63;;;1.80;;